Time;durP1;ratioP1;P1;durP2;ratioP2;P2;SDS_P1;SDS_P2;PMS_P1;PMS_P2;Temp;Humidity;BMP_temperature;BMP_pressure;BME280_temperature;BME280_humidity;BME280_pressure;Samples;Min_cycle;Max_cycle;Signal;HPM_P1;HPM_P2
2022/12/28 00:00:22;;;;;;;4.88;1.50;;;3.50;98.00;;;;;;5072323;28;20107;-68
2022/12/28 00:02:48;;;;;;;5.95;1.50;;;3.30;98.00;;;;;;5071726;28;20025;-67
2022/12/28 00:05:13;;;;;;;1.63;0.90;;;3.20;98.00;;;;;;5074865;28;20029;-66
2022/12/28 00:07:41;;;;;;;2.65;1.20;;;3.20;98.00;;;;;;5067349;28;20036;-67
2022/12/28 00:10:07;;;;;;;4.63;1.38;;;3.30;98.00;;;;;;5071334;28;20025;-67
2022/12/28 00:12:33;;;;;;;3.15;1.40;;;3.30;98.00;;;;;;5050527;28;20035;-68
2022/12/28 00:14:58;;;;;;;2.50;1.02;;;3.30;98.00;;;;;;5076900;28;20029;-67
2022/12/28 00:17:24;;;;;;;3.10;1.33;;;3.10;98.00;;;;;;5075239;28;20059;-68
2022/12/28 00:19:50;;;;;;;6.05;1.73;;;2.90;98.00;;;;;;5055842;28;20310;-68
2022/12/28 00:22:15;;;;;;;4.53;1.70;;;2.80;98.00;;;;;;5070773;28;20044;-68
2022/12/28 00:24:41;;;;;;;3.45;1.50;;;2.80;98.00;;;;;;5054785;28;20077;-67
2022/12/28 00:27:06;;;;;;;9.15;2.92;;;2.90;98.00;;;;;;5074145;28;20049;-68
2022/12/28 00:29:32;;;;;;;4.88;1.70;;;2.90;98.00;;;;;;5076386;28;20039;-67
2022/12/28 00:31:57;;;;;;;4.38;1.73;;;2.80;98.00;;;;;;5072075;28;20024;-68
2022/12/28 00:34:23;;;;;;;3.28;1.20;;;2.70;98.00;;;;;;5069706;28;20025;-67
2022/12/28 00:36:50;;;;;;;3.45;1.40;;;2.70;98.00;;;;;;5073477;28;20413;-67
2022/12/28 00:39:16;;;;;;;5.00;1.40;;;2.90;98.00;;;;;;5074060;28;20078;-68
2022/12/28 00:41:42;;;;;;;3.25;1.25;;;2.90;98.00;;;;;;5064213;28;20444;-67
2022/12/28 00:44:07;;;;;;;2.80;1.10;;;2.80;98.00;;;;;;5075682;28;20028;-67
2022/12/28 00:46:33;;;;;;;3.50;1.20;;;3.20;98.00;;;;;;5075771;28;20031;-67
2022/12/28 00:48:59;;;;;;;4.15;1.33;;;3.40;98.00;;;;;;5075267;28;20035;-67
2022/12/28 00:51:24;;;;;;;1.70;1.00;;;3.40;98.00;;;;;;5055518;28;20420;-66
2022/12/28 00:53:50;;;;;;;3.45;1.10;;;3.40;98.00;;;;;;5070694;28;20312;-67
2022/12/28 00:56:19;;;;;;;2.08;1.00;;;3.50;98.00;;;;;;5075950;28;20024;-67
2022/12/28 00:58:45;;;;;;;2.95;1.10;;;3.90;97.40;;;;;;5076382;28;20401;-66
2022/12/28 01:01:15;;;;;;;5.13;1.20;;;4.10;96.50;;;;;;5068044;28;20033;-67
2022/12/28 01:03:40;;;;;;;3.83;1.10;;;4.10;96.30;;;;;;5074043;28;20345;-67
2022/12/28 01:06:07;;;;;;;2.03;1.00;;;3.90;96.80;;;;;;5074328;28;20040;-67
2022/12/28 01:08:35;;;;;;;3.28;1.17;;;4.00;96.60;;;;;;5068161;28;20040;-67
2022/12/28 01:11:06;;;;;;;2.85;1.00;;;4.00;96.70;;;;;;5045871;28;20024;-67
2022/12/28 01:13:32;;;;;;;3.83;1.38;;;4.00;96.90;;;;;;5074345;28;20055;-67
2022/12/28 01:15:58;;;;;;;3.30;1.20;;;4.20;96.10;;;;;;5075352;28;20025;-67
2022/12/28 01:18:23;;;;;;;2.55;0.95;;;4.30;95.80;;;;;;5074973;28;20420;-67
2022/12/28 01:20:49;;;;;;;2.05;0.90;;;4.40;95.10;;;;;;5075010;28;20047;-67
2022/12/28 01:23:14;;;;;;;3.08;1.10;;;4.50;95.00;;;;;;5075654;28;20085;-67
2022/12/28 01:25:40;;;;;;;4.03;1.10;;;4.40;95.30;;;;;;5050824;28;20029;-67
2022/12/28 01:28:05;;;;;;;2.35;1.02;;;4.30;95.30;;;;;;5064497;28;20033;-68
2022/12/28 01:30:31;;;;;;;3.75;0.98;;;4.30;95.50;;;;;;5066171;28;20039;-67
2022/12/28 01:33:00;;;;;;;2.05;0.93;;;4.20;95.90;;;;;;5076942;28;20035;-67
2022/12/28 01:35:25;;;;;;;2.97;1.10;;;4.20;96.00;;;;;;5075636;28;20031;-67
2022/12/28 01:37:51;;;;;;;2.95;0.90;;;4.30;95.80;;;;;;5076218;28;20032;-68
2022/12/28 01:40:16;;;;;;;2.88;1.42;;;4.50;95.30;;;;;;5076424;28;20024;-68
2022/12/28 01:42:42;;;;;;;2.55;1.00;;;4.60;94.60;;;;;;5059743;28;20056;-67
2022/12/28 01:45:17;;;;;;;2.83;0.90;;;4.60;94.70;;;;;;5062623;28;20029;-68
2022/12/28 01:47:45;;;;;;;4.70;1.00;;;4.70;94.50;;;;;;5071828;28;20070;-67
2022/12/28 01:50:16;;;;;;;2.45;1.08;;;4.50;95.40;;;;;;5070495;28;20025;-67
2022/12/28 01:52:48;;;;;;;2.22;1.02;;;4.40;95.90;;;;;;5070814;28;20013;-67
2022/12/28 01:55:24;;;;;;;4.57;1.13;;;4.50;95.50;;;;;;5070748;28;20070;-67
2022/12/28 01:58:00;;;;;;;3.58;0.90;;;4.80;94.60;;;;;;5042363;28;20033;-67
2022/12/28 02:00:25;;;;;;;3.67;1.00;;;5.10;93.50;;;;;;5069249;28;20032;-67
2022/12/28 02:03:02;;;;;;;5.47;1.15;;;5.10;93.30;;;;;;5073365;28;20439;-68
2022/12/28 02:05:32;;;;;;;3.70;0.90;;;5.10;93.40;;;;;;5069997;28;20032;-68
2022/12/28 02:08:12;;;;;;;2.10;1.00;;;5.20;93.20;;;;;;5076146;28;20024;-68
2022/12/28 02:10:40;;;;;;;3.45;1.30;;;5.20;92.80;;;;;;5074093;28;20033;-66
2022/12/28 02:13:07;;;;;;;5.10;1.10;;;5.30;92.70;;;;;;5072143;28;20032;-68
2022/12/28 02:15:33;;;;;;;5.13;1.20;;;5.30;92.60;;;;;;5070062;28;20484;-68
2022/12/28 02:17:59;;;;;;;3.92;1.05;;;5.40;92.40;;;;;;5073330;28;20032;-67
2022/12/28 02:20:33;;;;;;;1.65;0.90;;;5.30;92.80;;;;;;5058175;28;20318;-68
2022/12/28 02:23:27;;;;;;;1.95;0.90;;;5.30;92.70;;;;;;5074172;28;20031;-68
2022/12/28 02:26:10;;;;;;;2.83;0.98;;;5.30;93.10;;;;;;5070091;28;20029;-68
2022/12/28 02:28:44;;;;;;;3.10;1.10;;;5.30;93.10;;;;;;5073419;28;20024;-68
2022/12/28 02:31:31;;;;;;;2.47;0.95;;;5.40;92.80;;;;;;5052178;28;20021;-68
2022/12/28 02:34:23;;;;;;;2.90;1.00;;;5.30;93.10;;;;;;5073277;28;20332;-67
2022/12/28 02:36:54;;;;;;;3.53;1.20;;;5.50;92.50;;;;;;5073438;28;20482;-67
2022/12/28 02:39:27;;;;;;;2.67;0.90;;;5.50;92.40;;;;;;5066440;28;20036;-67
2022/12/28 02:41:54;;;;;;;4.00;1.20;;;5.40;92.70;;;;;;5070273;28;20029;-67
2022/12/28 02:50:05;;;;;;;5.13;1.05;;;5.30;93.40;;;;;;5069919;28;20039;-69
2022/12/28 02:52:39;;;;;;;2.35;0.82;;;5.50;92.90;;;;;;5075441;28;20056;-68
2022/12/28 02:59:02;;;;;;;2.85;0.93;;;5.80;91.90;;;;;;5007637;28;20041;-68
2022/12/28 03:01:46;;;;;;;5.72;1.20;;;5.80;91.70;;;;;;5083597;28;20120;-68
2022/12/28 03:04:21;;;;;;;;;;;5.90;91.80;;;;;;5072729;28;20036;-68
2022/12/28 03:10:17;;;;;;;2.03;0.90;;;5.90;91.80;;;;;;5060322;28;20035;-68
2022/12/28 03:12:55;;;;;;;5.20;1.25;;;5.90;92.20;;;;;;5071467;28;20029;-69
2022/12/28 03:15:28;;;;;;;4.00;1.00;;;6.00;92.30;;;;;;5073767;28;20020;-69
2022/12/28 03:32:23;;;;;;;4.63;1.55;;;6.20;91.40;;;;;;5035654;28;20087;-68
2022/12/28 03:34:49;;;;;;;3.13;1.00;;;6.20;91.60;;;;;;5027863;28;20377;-69
2022/12/28 03:37:45;;;;;;;2.92;1.20;;;6.20;91.60;;;;;;5017602;28;20048;-69
2022/12/28 03:40:34;;;;;;;4.05;1.00;;;6.10;92.00;;;;;;5075107;28;20037;-68
2022/12/28 03:46:03;;;;;;;4.22;1.17;;;6.20;91.50;;;;;;5075635;28;20039;-69
2022/12/28 03:48:32;;;;;;;3.33;1.00;;;6.30;91.30;;;;;;5077110;28;20028;-69
2022/12/28 03:51:00;;;;;;;4.60;1.30;;;6.40;91.30;;;;;;5076540;28;20027;-68
2022/12/28 03:53:35;;;;;;;4.85;1.10;;;6.40;91.40;;;;;;5078743;28;20027;-69
2022/12/28 03:56:12;;;;;;;6.47;1.20;;;6.40;91.50;;;;;;5078445;28;20021;-69
2022/12/28 03:58:38;;;;;;;2.45;0.82;;;6.30;91.70;;;;;;5058597;28;20052;-68
2022/12/28 04:01:04;;;;;;;3.40;1.00;;;6.40;91.70;;;;;;5057041;28;20021;-68
2022/12/28 04:03:30;;;;;;;7.63;1.23;;;6.40;91.80;;;;;;5056154;28;20095;-69
2022/12/28 04:05:55;;;;;;;4.80;1.10;;;6.40;91.90;;;;;;5055560;28;20037;-69
2022/12/28 04:08:21;;;;;;;5.25;1.50;;;6.40;91.90;;;;;;5057342;28;20029;-69
2022/12/28 04:10:47;;;;;;;2.25;0.98;;;6.40;92.10;;;;;;5056814;28;20074;-69
2022/12/28 04:13:13;;;;;;;2.70;1.00;;;6.30;92.40;;;;;;5056151;28;20032;-69
2022/12/28 04:15:38;;;;;;;5.65;1.23;;;6.30;92.70;;;;;;5056353;28;20035;-69
2022/12/28 04:18:04;;;;;;;3.47;1.20;;;6.20;92.80;;;;;;5055698;28;20028;-68
2022/12/28 04:20:29;;;;;;;3.95;1.08;;;6.40;92.40;;;;;;5054861;28;20029;-69
2022/12/28 04:22:55;;;;;;;5.30;1.10;;;6.40;92.30;;;;;;5053628;28;20025;-68
2022/12/28 04:25:20;;;;;;;7.53;1.17;;;6.30;92.60;;;;;;5056869;28;20036;-69
2022/12/28 04:27:46;;;;;;;3.78;1.20;;;6.30;92.50;;;;;;5055739;28;20037;-68
2022/12/28 04:30:12;;;;;;;3.42;1.55;;;6.30;92.50;;;;;;5056933;28;20358;-69
2022/12/28 04:32:37;;;;;;;5.82;1.20;;;6.30;92.60;;;;;;5057309;28;20028;-69
2022/12/28 04:35:03;;;;;;;5.45;1.30;;;6.30;92.50;;;;;;5050773;28;20025;-69
2022/12/28 04:37:29;;;;;;;4.28;0.95;;;6.40;92.10;;;;;;5053079;28;20025;-69
2022/12/28 04:39:54;;;;;;;7.65;3.05;;;6.50;91.80;;;;;;5055539;28;20021;-68
2022/12/28 04:42:20;;;;;;;3.67;1.10;;;6.50;91.60;;;;;;5054776;28;20032;-69
2022/12/28 04:44:46;;;;;;;3.33;1.00;;;6.50;91.60;;;;;;5055161;28;20033;-68
2022/12/28 04:47:12;;;;;;;4.35;1.35;;;6.50;91.70;;;;;;5055539;28;20033;-69
2022/12/28 04:49:38;;;;;;;4.35;1.35;;;6.40;91.80;;;;;;5053635;28;20029;-69
2022/12/28 04:52:03;;;;;;;3.80;1.00;;;6.40;91.80;;;;;;5055616;28;20028;-68
2022/12/28 04:54:29;;;;;;;4.70;1.23;;;6.50;91.60;;;;;;5056015;28;20029;-68
2022/12/28 04:56:55;;;;;;;4.43;1.08;;;6.60;90.80;;;;;;5044957;28;20100;-68
2022/12/28 04:59:20;;;;;;;4.10;1.27;;;6.70;90.70;;;;;;5058519;28;20056;-68
2022/12/28 05:01:46;;;;;;;2.55;1.27;;;6.60;91.00;;;;;;5076999;28;20030;-69
2022/12/28 05:04:11;;;;;;;3.08;0.90;;;6.60;91.20;;;;;;5075045;28;20107;-68
2022/12/28 05:06:37;;;;;;;6.65;1.73;;;6.60;91.70;;;;;;5064378;28;20033;-69
2022/12/28 05:09:03;;;;;;;5.47;1.50;;;6.50;92.10;;;;;;5074346;28;20413;-68
2022/12/28 05:11:29;;;;;;;2.90;1.00;;;6.50;92.00;;;;;;5076455;28;20440;-68
2022/12/28 05:13:55;;;;;;;4.05;1.30;;;6.50;92.10;;;;;;5074399;28;20025;-69
2022/12/28 05:16:23;;;;;;;4.97;1.20;;;6.50;92.10;;;;;;5073967;28;20067;-69
2022/12/28 05:18:49;;;;;;;3.70;1.20;;;6.50;92.10;;;;;;5069333;28;20035;-68
2022/12/28 05:21:17;;;;;;;2.35;1.30;;;6.50;92.20;;;;;;5074465;28;20029;-68
2022/12/28 05:23:43;;;;;;;2.58;1.20;;;6.50;92.30;;;;;;5075766;28;20367;-68
2022/12/28 05:26:12;;;;;;;4.13;1.20;;;6.50;92.30;;;;;;5075777;28;20032;-69
2022/12/28 05:28:38;;;;;;;4.35;1.10;;;6.50;92.30;;;;;;5075903;28;20016;-68
2022/12/28 05:31:06;;;;;;;4.68;1.50;;;6.40;92.50;;;;;;5076086;28;20112;-68
2022/12/28 05:33:34;;;;;;;5.63;1.20;;;6.50;92.50;;;;;;5077447;28;20100;-68
2022/12/28 05:36:04;;;;;;;5.50;1.33;;;6.50;92.70;;;;;;5072295;28;20028;-68
2022/12/28 05:38:33;;;;;;;3.30;1.10;;;6.40;92.60;;;;;;5069502;28;20036;-68
2022/12/28 05:41:26;;;;;;;1.98;0.90;;;6.40;92.70;;;;;;5075736;28;20020;-69
2022/12/28 05:43:52;;;;;;;5.00;1.30;;;6.40;92.80;;;;;;5075226;28;20097;-69
2022/12/28 05:46:25;;;;;;;8.13;1.35;;;6.30;93.20;;;;;;5075128;28;20473;-69
2022/12/28 05:48:50;;;;;;;4.80;1.23;;;6.30;93.40;;;;;;5074372;28;20024;-69
2022/12/28 05:51:18;;;;;;;5.15;1.48;;;6.10;94.00;;;;;;5076553;28;20024;-69
2022/12/28 05:53:44;;;;;;;5.30;1.30;;;6.10;94.10;;;;;;5074345;28;20052;-68
2022/12/28 05:56:13;;;;;;;5.18;1.23;;;6.10;94.30;;;;;;5074560;28;20577;-69
2022/12/28 05:58:38;;;;;;;3.83;1.50;;;6.00;94.40;;;;;;5075271;28;20055;-68
2022/12/28 06:01:10;;;;;;;5.10;1.20;;;6.10;94.40;;;;;;5074970;28;20028;-69
2022/12/28 06:03:37;;;;;;;2.70;1.20;;;6.10;94.50;;;;;;5072862;28;20027;-68
2022/12/28 06:06:09;;;;;;;3.63;1.58;;;6.00;94.70;;;;;;5069042;28;20471;-68
2022/12/28 06:08:36;;;;;;;5.65;2.20;;;5.90;94.80;;;;;;5066832;28;20039;-68
2022/12/28 06:11:04;;;;;;;5.57;1.45;;;6.00;94.60;;;;;;5073596;28;20029;-68
2022/12/28 06:13:33;;;;;;;3.78;1.33;;;5.90;94.70;;;;;;5072708;28;20112;-68
2022/12/28 06:16:07;;;;;;;3.88;1.40;;;5.90;94.90;;;;;;5069099;28;20028;-68
2022/12/28 06:18:34;;;;;;;4.22;1.30;;;5.80;95.30;;;;;;5059436;28;20079;-68
2022/12/28 06:21:06;;;;;;;6.53;1.40;;;5.80;95.40;;;;;;5070818;28;20032;-67
2022/12/28 06:23:31;;;;;;;3.80;1.40;;;5.70;95.50;;;;;;5069828;28;20108;-68
2022/12/28 06:25:58;;;;;;;6.13;1.77;;;5.70;95.70;;;;;;5070751;28;20382;-67
2022/12/28 06:28:24;;;;;;;5.32;1.40;;;5.80;95.10;;;;;;5073317;28;20056;-67
2022/12/28 06:30:50;;;;;;;3.03;1.30;;;5.90;94.90;;;;;;5075871;28;20071;-67
2022/12/28 06:33:15;;;;;;;5.20;1.40;;;5.90;95.10;;;;;;5073281;28;20078;-68
2022/12/28 06:35:41;;;;;;;3.85;1.30;;;5.90;95.10;;;;;;5067985;28;20021;-68
2022/12/28 06:38:06;;;;;;;5.70;1.55;;;5.90;94.90;;;;;;5062084;28;20025;-68
2022/12/28 06:40:32;;;;;;;7.00;1.30;;;5.90;94.80;;;;;;5066376;28;20033;-68
2022/12/28 06:42:58;;;;;;;3.67;1.40;;;5.80;95.10;;;;;;5060569;28;20040;-68
2022/12/28 06:45:23;;;;;;;3.03;1.20;;;5.70;95.50;;;;;;5071379;28;20036;-67
2022/12/28 06:47:49;;;;;;;5.60;1.40;;;5.70;95.30;;;;;;5070280;28;20108;-69
2022/12/28 06:50:32;;;;;;;3.05;1.10;;;5.80;95.00;;;;;;5072879;28;20028;-66
2022/12/28 06:52:58;;;;;;;3.45;1.08;;;6.00;94.50;;;;;;5071875;28;20309;-67
2022/12/28 06:55:24;;;;;;;4.45;1.15;;;6.00;94.10;;;;;;5071693;28;20107;-67
2022/12/28 06:57:49;;;;;;;6.00;1.40;;;6.10;93.70;;;;;;5063854;28;20052;-68
2022/12/28 07:00:16;;;;;;;3.95;1.10;;;6.20;93.60;;;;;;5070217;28;20031;-68
2022/12/28 07:02:42;;;;;;;2.47;1.00;;;6.10;94.00;;;;;;5054039;28;20078;-68
2022/12/28 07:05:08;;;;;;;4.63;1.25;;;6.00;94.00;;;;;;5074633;28;20021;-67
2022/12/28 07:07:33;;;;;;;3.20;1.20;;;5.90;94.10;;;;;;5074160;28;20095;-68
2022/12/28 07:09:59;;;;;;;2.97;1.20;;;5.80;94.20;;;;;;5070667;28;20033;-68
2022/12/28 07:12:24;;;;;;;5.63;1.30;;;5.70;94.60;;;;;;5072924;28;20021;-68
2022/12/28 07:14:50;;;;;;;4.80;1.50;;;5.70;94.60;;;;;;5074196;28;20055;-68
2022/12/28 07:17:15;;;;;;;5.00;1.50;;;5.80;94.30;;;;;;5079588;28;20092;-68
2022/12/28 07:19:41;;;;;;;2.85;1.13;;;5.90;94.00;;;;;;5078100;28;20044;-69
2022/12/28 07:22:07;;;;;;;4.65;1.60;;;6.00;93.60;;;;;;5077222;28;20154;-68
2022/12/28 07:24:33;;;;;;;4.22;1.10;;;6.00;93.60;;;;;;5079375;28;20043;-68
2022/12/28 07:26:58;;;;;;;4.05;1.15;;;6.10;93.40;;;;;;5076496;28;20353;-68
2022/12/28 07:29:24;;;;;;;6.50;1.30;;;6.10;93.30;;;;;;5078795;28;20025;-68
2022/12/28 07:31:49;;;;;;;3.63;1.42;;;6.20;93.00;;;;;;5058113;28;20032;-68
2022/12/28 07:34:15;;;;;;;3.42;1.30;;;6.20;92.70;;;;;;5076187;28;20036;-68
2022/12/28 07:36:41;;;;;;;2.08;0.98;;;6.20;92.80;;;;;;5077949;28;20028;-68
2022/12/28 07:39:06;;;;;;;4.05;1.13;;;6.20;92.80;;;;;;5076257;28;20028;-68
2022/12/28 07:41:34;;;;;;;4.22;1.20;;;6.20;92.60;;;;;;5066484;28;20083;-68
2022/12/28 07:44:00;;;;;;;4.05;1.13;;;6.30;92.20;;;;;;5066380;28;20029;-68
2022/12/28 07:46:32;;;;;;;1.98;1.00;;;6.40;92.20;;;;;;5075289;28;20055;-68
2022/12/28 07:48:57;;;;;;;3.67;1.13;;;6.30;92.60;;;;;;5075393;28;20034;-68
2022/12/28 07:51:31;;;;;;;3.15;1.10;;;6.30;92.90;;;;;;5078366;28;20021;-68
2022/12/28 07:53:58;;;;;;;3.75;1.02;;;6.40;92.10;;;;;;5078927;28;20095;-69
2022/12/28 07:56:25;;;;;;;2.20;1.10;;;6.50;91.80;;;;;;5061026;28;20021;-68
2022/12/28 07:58:57;;;;;;;5.13;1.38;;;6.50;91.70;;;;;;5078798;28;20136;-68
2022/12/28 08:01:25;;;;;;;2.67;0.98;;;6.50;91.80;;;;;;5071743;28;20417;-68
2022/12/28 08:03:56;;;;;;;4.22;0.95;;;6.50;91.30;;;;;;5074021;28;20021;-68
2022/12/28 08:06:22;;;;;;;3.75;1.20;;;6.50;91.10;;;;;;5063193;28;20039;-68
2022/12/28 08:08:50;;;;;;;2.00;1.05;;;6.60;90.90;;;;;;5075038;28;20024;-68
2022/12/28 08:11:19;;;;;;;4.75;2.00;;;6.60;90.80;;;;;;5072612;28;20028;-68
2022/12/28 08:13:45;;;;;;;3.95;1.20;;;6.70;90.60;;;;;;5059068;28;20032;-68
2022/12/28 08:16:14;;;;;;;5.03;1.35;;;6.70;90.50;;;;;;5039316;28;21769;-68
2022/12/28 08:18:40;;;;;;;2.33;1.10;;;6.70;90.60;;;;;;5050527;28;20451;-68
2022/12/28 08:21:09;;;;;;;3.92;1.10;;;6.80;90.30;;;;;;5055638;28;20040;-69
2022/12/28 08:23:35;;;;;;;2.92;1.00;;;6.80;90.30;;;;;;5050569;28;20029;-69
2022/12/28 08:26:06;;;;;;;2.97;1.33;;;6.80;89.90;;;;;;5051822;28;20037;-69
2022/12/28 08:28:32;;;;;;;2.90;1.00;;;6.80;90.30;;;;;;5052664;28;20028;-69
2022/12/28 08:31:02;;;;;;;3.63;1.20;;;6.80;90.40;;;;;;5011382;28;20475;-69
2022/12/28 08:33:28;;;;;;;2.78;1.20;;;6.80;90.00;;;;;;5051696;28;20036;-68
2022/12/28 08:35:56;;;;;;;2.33;1.00;;;6.90;89.90;;;;;;5050330;28;20401;-68
2022/12/28 08:38:21;;;;;;;3.75;1.20;;;7.00;90.10;;;;;;5062947;28;20036;-69
2022/12/28 08:40:54;;;;;;;3.17;1.10;;;7.00;89.80;;;;;;5077432;28;20420;-68
2022/12/28 08:43:20;;;;;;;6.78;1.38;;;7.00;89.50;;;;;;5078199;28;20151;-68
2022/12/28 08:45:56;;;;;;;2.80;1.23;;;7.00;89.70;;;;;;5070510;28;20116;-69
2022/12/28 08:48:21;;;;;;;4.28;1.27;;;7.00;90.60;;;;;;5076801;28;20021;-68
2022/12/28 08:50:47;;;;;;;2.45;1.15;;;7.00;90.20;;;;;;5065014;28;20309;-68
2022/12/28 08:53:12;;;;;;;5.00;1.20;;;7.00;90.00;;;;;;5064340;28;20032;-68
2022/12/28 08:55:38;;;;;;;2.85;1.25;;;7.10;89.10;;;;;;5069088;28;20882;-68
2022/12/28 08:58:03;;;;;;;4.03;1.20;;;7.10;89.50;;;;;;5072744;28;20052;-68
2022/12/28 09:00:29;;;;;;;2.78;1.10;;;7.10;89.00;;;;;;5066984;28;20029;-68
2022/12/28 09:02:58;;;;;;;5.28;1.35;;;7.10;89.50;;;;;;5070187;28;20031;-68
2022/12/28 09:05:23;;;;;;;3.53;1.27;;;7.10;89.80;;;;;;5048141;28;20424;-68
2022/12/28 09:07:50;;;;;;;5.88;1.20;;;7.00;90.00;;;;;;5057711;28;20082;-68
2022/12/28 09:10:16;;;;;;;3.97;1.20;;;7.10;89.80;;;;;;5075405;28;20028;-68
2022/12/28 09:12:41;;;;;;;4.13;1.40;;;7.20;89.50;;;;;;5071908;28;20029;-68
2022/12/28 09:15:07;;;;;;;3.15;1.23;;;7.30;89.60;;;;;;5076437;28;20078;-68
2022/12/28 09:17:33;;;;;;;3.97;1.08;;;7.30;89.30;;;;;;5062893;28;20021;-68
2022/12/28 09:19:59;;;;;;;2.70;1.10;;;7.40;88.70;;;;;;5066456;28;20051;-68
2022/12/28 09:22:24;;;;;;;5.07;1.00;;;7.60;88.60;;;;;;5073883;28;20040;-68
2022/12/28 09:24:50;;;;;;;5.30;1.17;;;7.60;87.80;;;;;;5064676;28;20033;-68
2022/12/28 09:27:15;;;;;;;3.58;1.17;;;7.80;87.30;;;;;;5068975;28;20078;-68
2022/12/28 09:29:41;;;;;;;2.80;1.10;;;7.80;87.30;;;;;;5067602;28;20105;-68
2022/12/28 09:32:07;;;;;;;7.13;1.10;;;7.80;87.70;;;;;;5069386;28;20035;-68
2022/12/28 09:34:34;;;;;;;6.47;1.50;;;7.80;87.10;;;;;;5069097;28;20021;-68
2022/12/28 09:37:00;;;;;;;3.53;1.30;;;7.80;87.50;;;;;;5070506;28;20074;-68
2022/12/28 09:39:26;;;;;;;3.53;1.13;;;7.80;87.50;;;;;;5073955;28;20028;-68
2022/12/28 09:41:57;;;;;;;2.88;1.10;;;8.00;86.90;;;;;;5076979;28;20364;-68
2022/12/28 09:44:38;;;;;;;3.35;1.00;;;8.00;86.80;;;;;;5076795;28;20031;-68
2022/12/28 09:47:13;;;;;;;3.10;1.30;;;8.00;86.80;;;;;;5076047;28;20028;-68
2022/12/28 09:49:56;;;;;;;3.35;1.38;;;8.00;87.30;;;;;;5074641;28;20032;-68
2022/12/28 09:52:45;;;;;;;5.85;1.88;;;8.00;87.40;;;;;;5057756;28;20040;-68
2022/12/28 09:55:11;;;;;;;3.78;1.73;;;8.00;87.40;;;;;;5056829;28;20338;-68
2022/12/28 09:57:40;;;;;;;4.68;2.30;;;8.00;87.80;;;;;;5056712;28;20106;-68
2022/12/28 10:00:13;;;;;;;4.03;2.10;;;8.20;87.90;;;;;;5056573;28;20049;-68
2022/12/28 10:02:39;;;;;;;4.28;2.00;;;8.20;87.90;;;;;;5056525;28;20029;-68
2022/12/28 10:05:06;;;;;;;4.88;1.90;;;8.20;87.10;;;;;;5066185;28;20359;-68
2022/12/28 10:07:31;;;;;;;5.15;2.38;;;8.30;86.90;;;;;;5058798;28;20436;-68
2022/12/28 10:09:57;;;;;;;4.22;1.85;;;8.40;86.80;;;;;;5076371;28;20032;-68
2022/12/28 10:12:23;;;;;;;7.70;2.42;;;8.40;86.70;;;;;;5058517;28;20539;-68
2022/12/28 10:14:52;;;;;;;6.50;2.70;;;8.40;87.10;;;;;;5056551;28;20059;-68
2022/12/28 10:17:23;;;;;;;6.45;2.63;;;8.30;87.40;;;;;;5056705;28;20021;-68
2022/12/28 10:19:49;;;;;;;4.65;1.88;;;8.30;87.60;;;;;;5065374;28;20024;-68
2022/12/28 10:22:20;;;;;;;5.25;2.33;;;8.20;87.10;;;;;;5073985;28;20115;-68
2022/12/28 10:24:46;;;;;;;4.78;2.22;;;7.90;88.10;;;;;;5076241;28;20042;-68
2022/12/28 10:27:23;;;;;;;9.32;4.60;;;7.90;88.70;;;;;;5076242;28;20024;-68
2022/12/28 10:29:51;;;;;;;8.65;4.35;;;8.00;88.70;;;;;;5076105;28;20064;-68
2022/12/28 10:32:18;;;;;;;5.28;2.13;;;8.20;88.90;;;;;;5060411;28;20029;-68
2022/12/28 10:34:58;;;;;;;4.97;2.00;;;8.30;87.60;;;;;;5054502;28;20049;-68
2022/12/28 10:37:28;;;;;;;5.75;2.13;;;8.40;88.00;;;;;;5056095;28;20028;-68
2022/12/28 10:40:00;;;;;;;6.18;2.20;;;8.10;87.70;;;;;;5062826;28;20025;-68
2022/12/28 10:42:39;;;;;;;5.68;2.50;;;8.00;88.40;;;;;;5074622;28;20124;-68
2022/12/28 10:45:15;;;;;;;9.25;3.25;;;7.90;88.70;;;;;;5076045;28;20052;-68
2022/12/28 10:47:45;;;;;;;4.82;2.83;;;7.80;89.50;;;;;;5067752;28;20417;-68
2022/12/28 10:50:36;;;;;;;3.65;1.98;;;7.80;89.80;;;;;;5054505;28;20443;-68
2022/12/28 10:53:01;;;;;;;6.32;2.13;;;7.80;89.60;;;;;;5055797;28;20321;-68
2022/12/28 10:55:32;;;;;;;6.47;2.08;;;7.90;89.70;;;;;;5055910;28;20017;-68
2022/12/28 10:58:21;;;;;;;5.65;2.20;;;7.90;89.60;;;;;;5074606;28;20024;-69
2022/12/28 11:00:56;;;;;;;4.22;2.13;;;7.90;90.10;;;;;;5074641;28;20032;-68
2022/12/28 11:03:34;;;;;;;4.00;2.10;;;8.30;90.10;;;;;;5075014;28;20108;-68
2022/12/28 11:06:20;;;;;;;4.47;1.67;;;8.60;87.80;;;;;;5074837;28;20017;-68
2022/12/28 11:09:21;;;;;;;6.38;2.33;;;8.30;87.40;;;;;;5057586;28;20032;-67
2022/12/28 11:11:52;;;;;;;3.88;1.70;;;8.00;89.10;;;;;;5067584;28;20037;-67
2022/12/28 11:14:30;;;;;;;4.38;1.75;;;7.80;90.20;;;;;;5075624;28;20028;-69
2022/12/28 11:16:56;;;;;;;5.13;2.30;;;7.80;90.10;;;;;;5069993;28;20028;-69
2022/12/28 11:19:24;;;;;;;4.20;2.10;;;7.80;90.80;;;;;;5060579;28;20056;-69
2022/12/28 11:21:50;;;;;;;6.75;2.28;;;7.70;90.00;;;;;;5055567;28;20112;-69
2022/12/28 11:24:18;;;;;;;6.00;2.65;;;7.70;90.70;;;;;;5055797;28;20365;-69
2022/12/28 11:26:49;;;;;;;7.53;4.32;;;7.90;90.80;;;;;;5052450;28;20051;-69
2022/12/28 11:29:16;;;;;;;5.38;2.88;;;8.00;89.90;;;;;;5061271;28;20021;-69
2022/12/28 11:32:02;;;;;;;5.57;2.65;;;8.10;90.10;;;;;;5068079;28;20052;-69
2022/12/28 11:34:30;;;;;;;6.88;3.60;;;8.20;89.50;;;;;;5055848;28;20364;-69
2022/12/28 11:36:56;;;;;;;4.22;2.13;;;8.60;88.90;;;;;;5075487;28;20052;-69
2022/12/28 11:39:24;;;;;;;4.15;2.05;;;8.90;88.10;;;;;;5074993;28;20064;-69
2022/12/28 11:41:51;;;;;;;8.63;3.45;;;9.20;85.60;;;;;;5074954;28;20028;-69
2022/12/28 11:44:43;;;;;;;5.35;2.45;;;9.20;86.50;;;;;;5075522;28;20025;-69
2022/12/28 11:47:14;;;;;;;6.18;1.85;;;9.40;86.60;;;;;;5075366;28;20074;-69
2022/12/28 11:49:41;;;;;;;9.02;4.55;;;10.00;85.20;;;;;;5071659;28;20479;-69
2022/12/28 11:52:16;;;;;;;6.82;2.65;;;10.60;83.50;;;;;;5075195;28;20452;-69
2022/12/28 11:54:51;;;;;;;9.48;3.40;;;10.50;82.40;;;;;;5075485;28;20032;-69
2022/12/28 11:57:53;;;;;;;8.30;3.65;;;10.50;82.60;;;;;;5075315;28;20028;-68
2022/12/28 12:00:18;;;;;;;5.45;1.98;;;10.50;81.30;;;;;;4958918;29;20138;-68
2022/12/28 12:02:48;;;;;;;3.17;1.50;;;10.60;81.70;;;;;;5052499;28;20116;-68
2022/12/28 12:05:36;;;;;;;2.70;1.30;;;10.70;81.80;;;;;;5077756;28;20111;-69
2022/12/28 12:08:12;;;;;;;4.55;1.60;;;10.60;80.90;;;;;;5074540;28;20317;-69
2022/12/28 12:10:40;;;;;;;4.40;1.75;;;10.70;82.60;;;;;;5058741;28;20053;-69
2022/12/28 12:13:29;;;;;;;4.63;1.70;;;11.40;80.90;;;;;;5058687;28;20151;-69
2022/12/28 12:15:59;;;;;;;3.50;1.30;;;12.00;79.30;;;;;;5058697;28;20316;-69
2022/12/28 12:18:28;;;;;;;3.95;1.30;;;12.40;77.60;;;;;;5047809;28;20027;-69
2022/12/28 12:21:06;;;;;;;4.32;1.50;;;12.50;76.70;;;;;;5077509;28;20035;-69
2022/12/28 12:23:34;;;;;;;3.30;1.13;;;12.30;77.30;;;;;;5060757;28;20035;-69
2022/12/28 12:26:18;;;;;;;5.00;2.38;;;12.00;76.70;;;;;;5074874;28;20032;-69
2022/12/28 12:28:51;;;;;;;3.90;1.30;;;12.00;77.50;;;;;;5073066;28;20085;-69
2022/12/28 12:31:31;;;;;;;3.90;1.42;;;12.20;78.00;;;;;;5078564;28;20035;-69
2022/12/28 12:34:05;;;;;;;3.95;1.42;;;12.10;78.10;;;;;;5075050;28;20013;-69
2022/12/28 12:36:37;;;;;;;;;;;12.40;77.90;;;;;;5077728;28;20020;-68
2022/12/28 12:39:03;;;;;;;3.63;1.48;;;12.30;77.60;;;;;;5076761;28;19911;-68
2022/12/28 12:42:00;;;;;;;4.57;1.50;;;12.00;78.00;;;;;;5078293;28;20041;-69
2022/12/28 12:44:52;;;;;;;5.72;1.30;;;11.60;78.60;;;;;;5077146;28;20078;-69
2022/12/28 12:47:36;;;;;;;4.60;1.33;;;11.30;78.90;;;;;;5076132;28;20048;-68
2022/12/28 12:50:28;;;;;;;;;;;11.50;80.00;;;;;;5072793;28;20425;-69
2022/12/28 12:53:24;;;;;;;4.18;1.67;;;11.30;79.10;;;;;;5077920;28;19911;-69
2022/12/28 12:56:28;;;;;;;4.28;1.40;;;11.10;79.20;;;;;;5063192;28;20408;-68
2022/12/28 12:59:08;;;;;;;3.85;1.50;;;10.50;80.40;;;;;;5076205;28;20040;-68
2022/12/28 13:01:46;;;;;;;4.57;1.67;;;10.30;81.20;;;;;;5076102;28;20074;-69
2022/12/28 13:04:25;;;;;;;4.60;1.90;;;10.10;81.60;;;;;;5057587;28;20115;-69
2022/12/28 13:06:57;;;;;;;5.38;1.95;;;9.90;83.30;;;;;;5069990;28;20459;-69
2022/12/28 13:09:24;;;;;;;4.13;1.77;;;9.40;83.80;;;;;;5060170;28;20036;-68
2022/12/28 13:11:50;;;;;;;4.70;1.80;;;9.20;84.50;;;;;;5063216;28;20048;-68
2022/12/28 13:14:18;;;;;;;3.50;1.55;;;9.20;85.70;;;;;;5077608;28;20324;-69
2022/12/28 13:16:51;;;;;;;4.35;1.83;;;9.30;84.40;;;;;;5076778;28;20021;-69
2022/12/28 13:19:22;;;;;;;4.55;1.90;;;9.20;84.40;;;;;;5061015;28;20664;-68
2022/12/28 13:21:50;;;;;;;3.42;1.80;;;9.00;85.00;;;;;;5058415;28;20037;-68
2022/12/28 13:24:37;;;;;;;4.22;2.10;;;8.90;86.00;;;;;;5057405;28;20429;-68
2022/12/28 13:27:19;;;;;;;4.82;1.83;;;8.80;86.00;;;;;;5071181;28;20032;-68
2022/12/28 13:29:51;;;;;;;3.70;1.70;;;8.80;86.00;;;;;;5068036;28;20036;-69
2022/12/28 13:32:24;;;;;;;3.13;1.50;;;8.70;86.60;;;;;;5075762;28;20028;-68
2022/12/28 13:34:49;;;;;;;7.75;3.75;;;8.70;86.20;;;;;;5074392;28;20039;-68
2022/12/28 13:37:17;;;;;;;5.07;2.58;;;8.70;87.00;;;;;;5075998;28;20032;-68
2022/12/28 13:39:43;;;;;;;5.22;2.58;;;8.70;86.60;;;;;;5068952;28;20037;-68
2022/12/28 13:42:27;;;;;;;6.50;4.18;;;8.70;86.30;;;;;;5070238;28;20036;-67